createdAt,value
2023-04-23T00:02:14.193Z,95603.19
2023-04-23T00:04:50.570Z,95602.81
2023-04-23T00:07:21.350Z,95604.81
2023-04-23T00:09:53.235Z,95611.16
2023-04-23T00:12:21.918Z,95605.94
2023-04-23T00:14:50.030Z,95612.25
2023-04-23T00:17:18.290Z,95604.53
2023-04-23T00:19:47.695Z,95607.78
2023-04-23T00:22:17.356Z,95613.03
2023-04-23T00:24:45.239Z,95614.28
2023-04-23T00:27:13.885Z,95615.09
2023-04-23T00:29:41.759Z,95607.38
2023-04-23T00:32:10.662Z,95608.13
2023-04-23T00:34:38.728Z,95614.94
2023-04-23T00:37:08.201Z,95614.00
2023-04-23T00:39:37.998Z,95608.16
2023-04-23T00:42:12.583Z,95618.09
2023-04-23T00:44:42.419Z,95618.41
2023-04-23T00:47:12.402Z,95617.94
2023-04-23T00:49:42.107Z,95611.28
2023-04-23T00:52:10.296Z,95624.25
2023-04-23T00:54:38.466Z,95626.44
2023-04-23T00:57:08.338Z,95627.81
2023-04-23T00:59:36.650Z,95618.41
2023-04-23T01:02:05.857Z,95625.81
2023-04-23T01:04:38.238Z,95631.84
2023-04-23T01:07:07.842Z,95632.63
2023-04-23T01:09:35.723Z,95636.59
2023-04-23T01:12:06.211Z,95636.44
2023-04-23T01:14:34.748Z,95636.94
2023-04-23T01:17:03.474Z,95642.19
2023-04-23T01:19:31.668Z,95640.94
2023-04-23T01:22:01.675Z,95640.63
2023-04-23T01:24:33.025Z,95637.53
2023-04-23T01:27:02.696Z,95642.19
2023-04-23T01:29:31.640Z,95643.41
2023-04-23T01:32:00.524Z,95652.03
2023-04-23T01:34:30.627Z,95643.25
2023-04-23T01:37:02.608Z,95653.28
2023-04-23T01:39:30.982Z,95651.13
2023-04-23T01:42:00.673Z,95653.28
2023-04-23T01:44:29.933Z,95657.00
2023-04-23T01:46:58.869Z,95652.66
2023-04-23T01:49:26.911Z,95654.50
2023-04-23T01:51:55.305Z,95653.88
2023-04-23T01:54:23.276Z,95652.19
2023-04-23T01:56:55.045Z,95652.94
2023-04-23T01:59:23.870Z,95662.81
2023-04-23T02:01:52.489Z,95668.38
2023-04-23T02:04:21.048Z,95667.78
2023-04-23T02:06:52.649Z,95659.44
2023-04-23T02:09:21.461Z,95660.81
2023-04-23T02:11:49.770Z,95662.97
2023-04-23T02:14:18.275Z,95668.38
2023-04-23T02:16:47.779Z,95655.88
2023-04-23T02:19:17.126Z,95666.88
2023-04-23T02:21:45.565Z,95664.69
2023-04-23T02:24:13.515Z,95662.22
2023-04-23T02:26:42.028Z,95667.63
2023-04-23T02:29:09.865Z,95665.94
2023-04-23T02:31:38.178Z,95658.84
2023-04-23T02:34:06.111Z,95662.81
2023-04-23T02:36:34.693Z,95662.69
2023-04-23T02:39:02.436Z,95659.78
2023-04-23T02:41:33.333Z,95665.47
2023-04-23T02:44:01.274Z,95662.53
2023-04-23T02:46:29.867Z,95663.13
2023-04-23T02:48:57.802Z,95665.59
2023-04-23T02:51:26.722Z,95661.56
2023-04-23T02:53:54.637Z,95664.34
2023-04-23T02:56:22.919Z,95668.16
2023-04-23T02:58:51.226Z,95663.25
2023-04-23T03:01:19.716Z,95662.47
2023-04-23T03:03:48.077Z,95669.56
2023-04-23T03:06:16.857Z,95671.28
2023-04-23T03:08:44.886Z,95666.06
2023-04-23T03:11:13.268Z,95659.44
2023-04-23T03:13:41.269Z,95674.88
2023-04-23T03:16:09.639Z,95666.22
2023-04-23T03:18:37.573Z,95665.56
2023-04-23T03:21:06.256Z,95661.41
2023-04-23T03:23:34.346Z,95656.59
2023-04-23T03:26:02.463Z,95667.09
2023-04-23T03:28:31.698Z,95669.19
2023-04-23T03:30:59.944Z,95669.47
2023-04-23T03:33:28.106Z,95672.19
2023-04-23T03:35:56.377Z,95661.34
2023-04-23T03:38:29.585Z,95663.19
2023-04-23T03:40:59.520Z,95676.22
2023-04-23T03:43:28.255Z,95670.81
2023-04-23T03:46:19.269Z,95667.81
2023-04-23T03:48:48.143Z,95679.53
2023-04-23T03:51:26.053Z,95680.84
2023-04-23T03:53:55.009Z,95679.69
2023-04-23T03:56:38.194Z,95679.41
2023-04-23T03:59:14.890Z,95681.59
2023-04-23T04:01:44.635Z,95671.97
2023-04-23T04:04:12.923Z,95685.41
2023-04-23T04:06:41.919Z,95674.53
2023-04-23T04:09:09.829Z,95673.31
2023-04-23T04:11:40.919Z,95671.78
2023-04-23T04:14:10.413Z,95671.59
2023-04-23T04:16:38.777Z,95669.50
2023-04-23T04:19:07.604Z,95660.56
2023-04-23T04:21:36.063Z,95677.44
2023-04-23T04:24:06.989Z,95682.25
2023-04-23T04:26:35.190Z,95683.03
2023-04-23T04:29:04.915Z,95678.16
2023-04-23T04:31:33.803Z,95680.28
2023-04-23T04:34:02.102Z,95675.66
2023-04-23T04:36:30.510Z,95684.19
2023-04-23T04:39:01.256Z,95674.56
2023-04-23T04:41:29.676Z,95672.28
2023-04-23T04:43:58.888Z,95675.31
2023-04-23T04:46:29.395Z,95675.13
2023-04-23T04:49:00.012Z,95680.94
2023-04-23T04:51:28.850Z,95675.44
2023-04-23T04:53:56.952Z,95671.22
2023-04-23T04:56:26.104Z,95676.13
2023-04-23T04:58:57.014Z,95675.25
2023-04-23T05:01:27.638Z,95675.97
2023-04-23T05:03:58.922Z,95674.59
2023-04-23T05:06:29.004Z,95665.28
2023-04-23T05:08:56.804Z,95671.13
2023-04-23T05:11:25.361Z,95664.41
2023-04-23T05:13:53.147Z,95663.25
2023-04-23T05:16:21.560Z,95664.81
2023-04-23T05:18:49.582Z,95648.63
2023-04-23T05:21:17.739Z,95652.47
2023-04-23T05:23:45.500Z,95646.78
2023-04-23T05:26:13.836Z,95649.41
2023-04-23T05:28:41.778Z,95647.28
2023-04-23T05:31:10.169Z,95645.94
2023-04-23T05:33:49.196Z,95642.66
2023-04-23T05:36:18.926Z,95636.09
2023-04-23T05:38:49.316Z,95635.91
2023-04-23T05:41:18.883Z,95633.41
2023-04-23T05:43:47.017Z,95631.00
2023-04-23T05:46:15.289Z,95636.13
2023-04-23T05:48:43.155Z,95637.16
2023-04-23T05:51:11.668Z,95629.56
2023-04-23T05:53:39.492Z,95634.19
2023-04-23T05:56:07.643Z,95629.53
2023-04-23T05:58:35.676Z,95629.72
2023-04-23T06:01:03.853Z,95626.34
2023-04-23T06:03:31.983Z,95618.53
2023-04-23T06:06:00.381Z,95627.88
2023-04-23T06:08:28.703Z,95617.16
2023-04-23T06:10:57.224Z,95613.31
2023-04-23T06:13:25.132Z,95619.81
2023-04-23T06:15:53.448Z,95620.50
2023-04-23T06:18:21.752Z,95619.34
2023-04-23T06:20:51.755Z,95619.94
2023-04-23T06:23:19.608Z,95619.00
2023-04-23T06:25:48.023Z,95617.59
2023-04-23T06:28:16.337Z,95622.50
2023-04-23T06:31:02.992Z,95625.78
2023-04-23T06:33:31.124Z,95619.22
2023-04-23T06:36:01.249Z,95608.72
2023-04-23T06:38:29.413Z,95608.09
2023-04-23T06:40:57.865Z,95603.13
2023-04-23T06:43:25.647Z,95602.22
2023-04-23T06:46:14.718Z,95605.47
2023-04-23T06:48:42.722Z,95599.09
2023-04-23T06:51:10.983Z,95582.16
2023-04-23T06:53:38.995Z,95567.38
2023-04-23T06:56:08.241Z,95577.69
2023-04-23T06:58:36.084Z,95569.53
2023-04-23T07:01:13.870Z,95574.44
2023-04-23T07:03:45.210Z,95576.97
2023-04-23T07:06:13.624Z,95566.78
2023-04-23T07:08:43.951Z,95564.03
2023-04-23T07:11:12.536Z,95553.38
2023-04-23T07:13:46.702Z,95555.78
2023-04-23T07:16:15.516Z,95560.94
2023-04-23T07:18:43.404Z,95542.84
2023-04-23T07:21:11.628Z,95544.88
2023-04-23T07:23:40.051Z,95538.75
2023-04-23T07:26:08.187Z,95539.00
2023-04-23T07:28:36.306Z,95532.13
2023-04-23T07:31:04.545Z,95526.28
2023-04-23T07:33:32.405Z,95521.16
2023-04-23T07:36:00.795Z,95525.25
2023-04-23T07:38:28.640Z,95520.19
2023-04-23T07:40:56.882Z,95513.03
2023-04-23T07:43:24.873Z,95520.19
2023-04-23T07:45:53.120Z,95514.28
2023-04-23T07:48:20.990Z,95517.09
2023-04-23T07:50:49.402Z,95510.50
2023-04-23T07:53:17.392Z,95503.84
2023-04-23T07:55:45.520Z,95504.31
2023-04-23T07:58:13.550Z,95494.84
2023-04-23T08:00:41.820Z,95498.91
2023-04-23T08:03:09.816Z,95494.00
2023-04-23T08:05:39.512Z,95492.44
2023-04-23T08:08:08.789Z,95476.81
2023-04-23T08:10:37.398Z,95477.09
2023-04-23T08:13:05.512Z,95480.38
2023-04-23T08:15:33.738Z,95485.72
2023-04-23T08:18:01.591Z,95480.84
2023-04-23T08:20:30.159Z,95490.88
2023-04-23T08:22:58.075Z,95471.94
2023-04-23T08:25:26.253Z,95480.09
2023-04-23T08:27:54.217Z,95477.00
2023-04-23T08:30:22.609Z,95468.84
2023-04-23T08:32:54.250Z,95472.66
2023-04-23T08:35:23.645Z,95470.84
2023-04-23T08:37:51.616Z,95473.66
2023-04-23T08:40:19.906Z,95470.22
2023-04-23T08:42:57.625Z,95460.25
2023-04-23T08:45:27.117Z,95459.91
2023-04-23T08:48:02.185Z,95459.31
2023-04-23T08:50:31.421Z,95460.06
2023-04-23T08:52:59.409Z,95449.25
2023-04-23T08:55:27.652Z,95454.84
2023-04-23T08:57:58.986Z,95444.59
2023-04-23T09:00:27.568Z,95445.34
2023-04-23T09:02:57.037Z,95441.19
2023-04-23T09:05:26.768Z,95440.13
2023-04-23T09:07:54.942Z,95436.00
2023-04-23T09:10:24.280Z,95427.34
2023-04-23T09:12:52.900Z,95424.75
2023-04-23T09:15:21.260Z,95414.97
2023-04-23T09:17:50.418Z,95411.34
2023-04-23T09:20:18.762Z,95412.38
2023-04-23T09:22:49.948Z,95416.16
2023-04-23T09:25:23.567Z,95398.84
2023-04-23T09:27:52.916Z,95397.94
2023-04-23T09:30:30.156Z,95392.00
2023-04-23T09:32:58.410Z,95392.88
2023-04-23T09:35:30.182Z,95384.03
2023-04-23T09:38:06.263Z,95382.75
2023-04-23T09:40:35.210Z,95384.03
2023-04-23T09:43:07.869Z,95373.72
2023-04-23T09:45:38.575Z,95368.38
2023-04-23T09:48:07.290Z,95354.81
2023-04-23T09:50:40.232Z,95356.09
2023-04-23T09:53:10.790Z,95353.16
2023-04-23T09:55:40.228Z,95353.16
2023-04-23T09:58:13.365Z,95352.78
2023-04-23T10:00:42.545Z,95349.59
2023-04-23T10:03:11.405Z,95351.63
2023-04-23T10:08:14.233Z,95348.22
2023-04-23T10:10:57.534Z,95344.97
2023-04-23T10:13:33.046Z,95335.09
2023-04-23T10:16:17.956Z,95335.00
2023-04-23T10:18:47.043Z,95330.22
2023-04-23T10:21:16.819Z,95339.03
2023-04-23T10:23:50.112Z,95327.97
2023-04-23T10:26:23.296Z,95329.06
2023-04-23T10:28:54.678Z,95331.47
2023-04-23T10:31:23.950Z,95311.69
2023-04-23T10:33:59.327Z,95316.69
2023-04-23T10:36:28.333Z,95309.97
2023-04-23T10:39:00.745Z,95314.97
2023-04-23T10:41:41.448Z,95304.72
2023-04-23T10:44:15.932Z,95313.84
2023-04-23T10:46:58.775Z,95303.47
2023-04-23T10:49:34.094Z,95302.47
2023-04-23T10:54:42.748Z,95295.38
2023-04-23T10:57:11.830Z,95295.06
2023-04-23T10:59:42.118Z,95290.06
2023-04-23T11:02:14.980Z,95290.81
2023-04-23T11:04:46.875Z,95288.03
2023-04-23T11:07:15.466Z,95274.31
2023-04-23T11:09:47.263Z,95271.06
2023-04-23T11:12:24.697Z,95278.22
2023-04-23T11:14:55.025Z,95273.34
2023-04-23T11:17:26.479Z,95262.44
2023-04-23T11:20:24.255Z,95269.53
2023-04-23T11:22:53.548Z,95264.97
2023-04-23T11:25:27.281Z,95260.69
2023-04-23T11:27:58.517Z,95252.66
2023-04-23T11:30:29.319Z,95247.13
2023-04-23T11:33:00.572Z,95259.50
2023-04-23T11:35:30.749Z,95259.81
2023-04-23T11:38:08.506Z,95252.53
2023-04-23T11:40:36.796Z,95250.50
2023-04-23T11:43:04.912Z,95261.56
2023-04-23T11:45:32.735Z,95263.84
2023-04-23T11:48:01.774Z,95259.50
2023-04-23T11:50:33.502Z,95263.41
2023-04-23T11:53:10.892Z,95252.22
2023-04-23T11:55:38.837Z,95255.81
2023-04-23T11:58:06.984Z,95254.19
2023-04-23T12:00:34.793Z,95243.63
2023-04-23T12:03:06.559Z,95248.00
2023-04-23T12:05:45.570Z,95236.25
2023-04-23T12:08:19.283Z,95248.84
2023-04-23T12:11:02.861Z,95249.72
2023-04-23T12:13:34.083Z,95249.31
2023-04-23T12:16:04.693Z,95246.69
2023-04-23T12:18:39.586Z,95244.50
2023-04-23T12:21:14.500Z,95237.56
2023-04-23T12:23:45.491Z,95244.50
2023-04-23T12:26:16.756Z,95248.88
2023-04-23T12:28:55.983Z,95249.94
2023-04-23T12:31:26.139Z,95255.59
2023-04-23T12:34:07.445Z,95251.47
2023-04-23T12:36:37.920Z,95255.28
2023-04-23T12:39:27.651Z,95256.78
2023-04-23T12:41:59.688Z,95264.09
2023-04-23T12:44:28.062Z,95269.09
2023-04-23T12:47:03.524Z,95268.41
2023-04-23T12:49:33.701Z,95262.13
2023-04-23T12:52:03.591Z,95270.69
2023-04-23T12:54:40.112Z,95268.75
2023-04-23T12:57:11.378Z,95272.78
2023-04-23T12:59:39.911Z,95278.53
2023-04-23T13:02:08.104Z,95278.97
2023-04-23T13:04:37.107Z,95293.16
2023-04-23T13:07:05.013Z,95298.38
2023-04-23T13:09:33.323Z,95290.78
2023-04-23T13:12:02.814Z,95291.06
2023-04-23T13:14:32.540Z,95288.81
2023-04-23T13:17:00.564Z,95294.00
2023-04-23T13:19:28.739Z,95303.00
2023-04-23T13:21:56.632Z,95306.38
2023-04-23T13:24:24.831Z,95310.81
2023-04-23T13:26:52.927Z,95314.25
2023-04-23T13:29:21.160Z,95317.25
2023-04-23T13:31:49.020Z,95320.91
2023-04-23T13:34:17.188Z,95323.38
2023-04-23T13:36:45.018Z,95328.13
2023-04-23T13:39:14.483Z,95338.75
2023-04-23T13:41:42.446Z,95334.53
2023-04-23T13:44:10.815Z,95338.75
2023-04-23T13:46:40.473Z,95351.16
2023-04-23T13:49:08.732Z,95354.72
2023-04-23T13:51:36.631Z,95363.78
2023-04-23T13:54:05.065Z,95363.03
2023-04-23T13:56:33.231Z,95371.22
2023-04-23T14:01:34.800Z,95383.13
2023-04-23T14:04:04.565Z,95393.47
2023-04-23T14:06:32.750Z,95397.47
2023-04-23T14:09:01.165Z,95400.28
2023-04-23T14:11:29.115Z,95398.66
2023-04-23T14:13:57.319Z,95403.09
2023-04-23T14:16:25.422Z,95393.72
2023-04-23T14:18:54.017Z,95384.31
2023-04-23T14:21:22.899Z,95372.59
2023-04-23T14:24:03.539Z,95356.69
2023-04-23T14:26:48.052Z,95363.63
2023-04-23T14:29:24.817Z,95350.31
2023-04-23T14:31:52.786Z,95347.06
2023-04-23T14:34:21.600Z,95336.88
2023-04-23T14:36:49.618Z,95352.25
2023-04-23T14:39:18.096Z,95350.69
2023-04-23T14:41:46.200Z,95352.25
2023-04-23T14:44:14.764Z,95353.50
2023-04-23T14:46:42.620Z,95355.16
2023-04-23T14:49:11.395Z,95349.09
2023-04-23T14:51:39.440Z,95348.03
2023-04-23T14:54:07.610Z,95345.75
2023-04-23T14:56:35.477Z,95353.25
2023-04-23T14:59:04.411Z,95349.72
2023-04-23T15:01:32.359Z,95350.81
2023-04-23T15:04:01.328Z,95355.47
2023-04-23T15:06:29.591Z,95350.09
2023-04-23T15:08:57.812Z,95348.59
2023-04-23T15:11:25.906Z,95351.41
2023-04-23T15:14:21.082Z,95350.69
2023-04-23T15:16:50.254Z,95351.47
2023-04-23T15:19:19.503Z,95346.84
2023-04-23T15:21:48.310Z,95355.06
2023-04-23T15:24:17.190Z,95367.84
2023-04-23T15:26:46.201Z,95368.41
2023-04-23T15:29:14.779Z,95368.16
2023-04-23T15:31:42.813Z,95366.91
2023-04-23T15:34:12.460Z,95365.41
2023-04-23T15:36:40.481Z,95368.94
2023-04-23T15:39:09.481Z,95372.53
2023-04-23T15:41:40.129Z,95380.75
2023-04-23T15:44:14.410Z,95386.09
2023-04-23T15:46:42.633Z,95391.22
2023-04-23T15:49:11.206Z,95389.47
2023-04-23T15:51:39.196Z,95402.75
2023-04-23T15:54:08.977Z,95406.34
2023-04-23T15:56:37.379Z,95414.25
2023-04-23T15:59:06.428Z,95411.19
2023-04-23T16:01:34.623Z,95414.25
2023-04-23T16:06:34.212Z,95411.50
2023-04-23T16:09:03.742Z,95412.28
2023-04-23T16:11:31.829Z,95407.72
2023-04-23T16:14:00.198Z,95414.34
2023-04-23T16:16:28.118Z,95428.41
2023-04-23T16:18:57.681Z,95439.16
2023-04-23T16:21:25.735Z,95442.00
2023-04-23T16:23:54.016Z,95441.97
2023-04-23T16:26:21.989Z,95447.59
2023-04-23T16:28:52.239Z,95447.06
2023-04-23T16:31:33.557Z,95455.78
2023-04-23T16:34:02.094Z,95456.78
2023-04-23T16:36:30.138Z,95460.34
2023-04-23T16:38:59.858Z,95467.75
2023-04-23T16:41:27.794Z,95468.56
2023-04-23T16:43:56.142Z,95476.50
2023-04-23T16:46:26.225Z,95482.88
2023-04-23T16:48:54.908Z,95488.75
2023-04-23T16:51:22.725Z,95495.69
2023-04-23T16:53:50.937Z,95496.97
2023-04-23T16:56:19.087Z,95501.78
2023-04-23T16:58:47.569Z,95506.41
2023-04-23T17:01:18.126Z,95514.81
2023-04-23T17:03:46.875Z,95519.94
2023-04-23T17:06:25.040Z,95521.72
2023-04-23T17:08:54.032Z,95527.56
2023-04-23T17:11:23.282Z,95526.81
2023-04-23T17:13:52.348Z,95537.28
2023-04-23T17:16:20.238Z,95527.84
2023-04-23T17:18:48.737Z,95531.16
2023-04-23T17:21:17.270Z,95527.84
2023-04-23T17:23:46.315Z,95524.50
2023-04-23T17:26:14.477Z,95532.66
2023-04-23T17:28:43.274Z,95532.41
2023-04-23T17:31:11.547Z,95549.50
2023-04-23T17:33:40.028Z,95544.38
2023-04-23T17:36:08.104Z,95550.00
2023-04-23T17:38:37.327Z,95545.63
2023-04-23T17:41:05.270Z,95562.72
2023-04-23T17:43:35.283Z,95558.63
2023-04-23T17:46:03.590Z,95551.72
2023-04-23T17:48:32.247Z,95547.84
2023-04-23T17:51:00.521Z,95546.53
2023-04-23T17:53:29.218Z,95558.00
2023-04-23T17:56:00.594Z,95556.97
2023-04-23T17:58:29.827Z,95552.09
2023-04-23T18:00:57.759Z,95552.09
2023-04-23T18:03:27.383Z,95554.31
2023-04-23T18:05:56.139Z,95553.56
2023-04-23T18:08:24.353Z,95544.66
2023-04-23T18:10:52.681Z,95520.06
2023-04-23T18:13:20.928Z,95521.81
2023-04-23T18:15:50.281Z,95520.34
2023-04-23T18:18:19.631Z,95509.88
2023-04-23T18:20:47.804Z,95522.59
2023-04-23T18:23:16.202Z,95507.97
2023-04-23T18:25:44.553Z,95505.44
2023-04-23T18:28:13.189Z,95505.94
2023-04-23T18:30:41.021Z,95512.56
2023-04-23T18:33:15.670Z,95499.19
2023-04-23T18:35:43.992Z,95505.41
2023-04-23T18:38:25.632Z,95501.50
2023-04-23T18:40:53.506Z,95503.31
2023-04-23T18:43:21.854Z,95497.22
2023-04-23T18:45:49.786Z,95488.81
2023-04-23T18:48:33.397Z,95497.22
2023-04-23T18:51:13.763Z,95480.84
2023-04-23T18:53:42.317Z,95494.81
2023-04-23T18:56:10.211Z,95505.16
2023-04-23T18:58:38.552Z,95505.88
2023-04-23T19:01:06.555Z,95509.38
2023-04-23T19:03:35.222Z,95505.53
2023-04-23T19:06:07.849Z,95502.69
2023-04-23T19:08:36.366Z,95500.94
2023-04-23T19:11:04.604Z,95509.75
2023-04-23T19:13:32.944Z,95508.41
2023-04-23T19:16:01.330Z,95501.28
2023-04-23T19:18:30.218Z,95504.09
2023-04-23T19:20:58.750Z,95500.03
2023-04-23T19:23:26.987Z,95491.56
2023-04-23T19:25:54.890Z,95495.06
2023-04-23T19:28:24.825Z,95493.00
2023-04-23T19:30:52.717Z,95488.09
2023-04-23T19:33:21.355Z,95480.84
2023-04-23T19:35:49.479Z,95488.13
2023-04-23T19:38:17.840Z,95487.16
2023-04-23T19:40:46.037Z,95480.50
2023-04-23T19:43:17.421Z,95488.91
2023-04-23T19:45:46.761Z,95503.16
2023-04-23T19:48:15.116Z,95493.72
2023-04-23T19:50:43.703Z,95498.59
2023-04-23T19:53:12.312Z,95488.69
2023-04-23T19:55:40.297Z,95491.53
2023-04-23T19:58:08.601Z,95483.88
2023-04-23T20:00:41.616Z,95486.94
2023-04-23T20:03:11.058Z,95485.41
2023-04-23T20:05:39.833Z,95477.94
2023-04-23T20:08:15.535Z,95494.28
2023-04-23T20:10:43.893Z,95483.03
2023-04-23T20:13:12.170Z,95480.03
2023-04-23T20:15:40.173Z,95475.53
2023-04-23T20:18:08.974Z,95477.97
2023-04-23T20:20:40.165Z,95478.38
2023-04-23T20:23:08.603Z,95482.53
2023-04-23T20:25:36.708Z,95479.69
2023-04-23T20:28:05.409Z,95477.75
2023-04-23T20:30:33.630Z,95480.38
2023-04-23T20:33:02.096Z,95474.13
2023-04-23T20:35:31.781Z,95479.25
2023-04-23T20:38:01.337Z,95480.88
2023-04-23T20:40:34.906Z,95482.38
2023-04-23T20:43:04.786Z,95480.38
2023-04-23T20:45:33.452Z,95492.75
2023-04-23T20:48:02.945Z,95495.81
2023-04-23T20:50:31.543Z,95496.06
2023-04-23T20:52:59.870Z,95491.97
2023-04-23T20:55:28.411Z,95486.72
2023-04-23T20:57:56.776Z,95487.31
2023-04-23T21:00:25.241Z,95483.81
2023-04-23T21:02:54.103Z,95487.75
2023-04-23T21:05:22.123Z,95491.56
2023-04-23T21:07:51.084Z,95491.00
2023-04-23T21:10:19.189Z,95488.81
2023-04-23T21:12:49.601Z,95481.84
2023-04-23T21:15:18.040Z,95485.88
2023-04-23T21:17:46.893Z,95486.56
2023-04-23T21:20:15.295Z,95488.22
2023-04-23T21:22:45.903Z,95478.53
2023-04-23T21:25:14.686Z,95489.78
2023-04-23T21:27:47.232Z,95484.19
2023-04-23T21:30:29.709Z,95486.44
2023-04-23T21:32:58.130Z,95496.25
2023-04-23T21:35:26.010Z,95498.88
2023-04-23T21:37:54.267Z,95505.41
2023-04-23T21:40:22.127Z,95512.53
2023-04-23T21:42:50.512Z,95502.75
2023-04-23T21:45:18.635Z,95492.41
2023-04-23T21:47:46.846Z,95484.31
2023-04-23T21:50:17.664Z,95488.78
2023-04-23T21:52:46.049Z,95485.53
2023-04-23T21:55:14.022Z,95491.66
2023-04-23T21:57:42.197Z,95487.16
2023-04-23T22:00:14.147Z,95478.50
2023-04-23T22:02:47.153Z,95473.13
2023-04-23T22:05:21.680Z,95479.22
2023-04-23T22:07:54.279Z,95478.16
2023-04-23T22:10:23.900Z,95477.16
2023-04-23T22:12:52.378Z,95479.22
2023-04-23T22:15:20.880Z,95481.22
2023-04-23T22:17:50.948Z,95477.88
2023-04-23T22:20:23.974Z,95473.31
2023-04-23T22:22:52.755Z,95471.97
2023-04-23T22:25:22.346Z,95466.97
2023-04-23T22:27:50.643Z,95472.50
2023-04-23T22:30:18.499Z,95451.84
2023-04-23T22:32:47.238Z,95454.03
2023-04-23T22:35:15.328Z,95450.22
2023-04-23T22:37:44.304Z,95447.78
2023-04-23T22:40:12.497Z,95450.38
2023-04-23T22:42:40.888Z,95449.06
2023-04-23T22:45:09.200Z,95456.16
2023-04-23T22:47:37.793Z,95452.94
2023-04-23T22:50:08.102Z,95446.09
2023-04-23T22:52:38.146Z,95455.03
2023-04-23T22:55:06.627Z,95445.09
2023-04-23T22:57:37.788Z,95445.66
2023-04-23T23:00:08.296Z,95444.63
2023-04-23T23:02:38.801Z,95452.00
2023-04-23T23:05:08.505Z,95451.50
2023-04-23T23:07:38.993Z,95441.88
2023-04-23T23:10:09.149Z,95452.59
2023-04-23T23:12:39.550Z,95448.22
2023-04-23T23:15:08.150Z,95430.97
2023-04-23T23:17:36.524Z,95431.22
2023-04-23T23:20:09.451Z,95437.81
2023-04-23T23:22:38.472Z,95435.53
2023-04-23T23:25:08.815Z,95432.75
2023-04-23T23:27:37.472Z,95430.22
2023-04-23T23:30:07.072Z,95437.09
2023-04-23T23:32:35.911Z,95435.56
2023-04-23T23:35:04.304Z,95442.41
2023-04-23T23:37:32.799Z,95436.13
2023-04-23T23:40:00.666Z,95438.69
2023-04-23T23:42:29.580Z,95438.13
2023-04-23T23:44:57.675Z,95437.16
2023-04-23T23:47:26.137Z,95423.56
2023-04-23T23:49:54.157Z,95430.16
2023-04-23T23:52:22.499Z,95435.84
2023-04-23T23:54:50.304Z,95440.75
2023-04-23T23:57:18.663Z,95445.53
2023-04-23T23:59:47.260Z,95449.63
